Time;durP1;ratioP1;P1;durP2;ratioP2;P2;SDS_P1;SDS_P2;PMS_P1;PMS_P2;Temp;Humidity;BMP_temperature;BMP_pressure;BME280_temperature;BME280_humidity;BME280_pressure;Samples;Min_cycle;Max_cycle;Signal;HPM_P1;HPM_P2
2023/04/14 00:03:38;;;;;;;1.77;0.98;;;10.90;92.40;;;;;;10317664;28;20080;-65
2023/04/14 00:08:38;;;;;;;3.78;1.10;;;10.90;92.40;;;;;;10317009;28;20080;-64
2023/04/14 00:13:39;;;;;;;2.20;1.27;;;10.90;92.40;;;;;;10313097;28;20138;-65
2023/04/14 00:18:40;;;;;;;2.03;1.10;;;10.80;92.40;;;;;;10315119;28;20509;-66
2023/04/14 00:23:40;;;;;;;2.13;1.13;;;10.80;92.40;;;;;;10310502;28;20038;-64
2023/04/14 00:28:41;;;;;;;2.72;1.10;;;10.80;92.70;;;;;;10314237;28;20034;-65
2023/04/14 00:33:41;;;;;;;1.27;0.88;;;10.80;92.40;;;;;;10312269;28;20037;-65
2023/04/14 00:38:42;;;;;;;2.22;1.27;;;10.70;92.40;;;;;;10315406;28;20065;-65
2023/04/14 00:43:43;;;;;;;2.67;1.08;;;10.70;92.40;;;;;;10310673;28;20473;-65
2023/04/14 00:48:43;;;;;;;2.80;1.20;;;10.70;92.40;;;;;;10323322;28;20438;-65
2023/04/14 00:53:48;;;;;;;2.08;1.25;;;10.70;92.40;;;;;;10318987;28;20018;-65
2023/04/14 00:58:50;;;;;;;2.45;1.13;;;10.40;92.40;;;;;;10318942;28;20058;-65
2023/04/14 01:03:51;;;;;;;1.60;0.90;;;10.60;92.40;;;;;;10321963;28;20023;-64
2023/04/14 01:08:52;;;;;;;1.88;1.08;;;10.60;92.40;;;;;;10321552;28;20026;-65
2023/04/14 01:14:08;;;;;;;4.22;1.27;;;10.60;92.40;;;;;;10322088;28;20027;-65
2023/04/14 01:19:45;;;;;;;2.70;1.13;;;10.60;92.40;;;;;;10320849;28;20429;-64
2023/04/14 01:25:07;;;;;;;2.63;1.00;;;10.50;92.40;;;;;;10321283;28;20034;-65
2023/04/14 01:30:41;;;;;;;1.50;1.00;;;10.50;92.40;;;;;;10319039;28;20026;-64
2023/04/14 01:35:48;;;;;;;2.88;1.20;;;10.50;92.40;;;;;;10322362;28;20034;-66
2023/04/14 01:40:53;;;;;;;3.38;1.23;;;10.50;92.40;;;;;;10323104;28;20058;-64
2023/04/14 01:45:57;;;;;;;2.30;0.93;;;10.40;92.40;;;;;;10319635;28;20106;-65
2023/04/14 01:51:01;;;;;;;1.92;1.20;;;10.40;92.40;;;;;;10316935;28;20386;-64
2023/04/14 01:56:03;;;;;;;1.30;0.95;;;10.40;92.40;;;;;;10317724;28;20026;-65
2023/04/14 02:01:05;;;;;;;3.65;1.25;;;10.30;92.70;;;;;;10320352;28;20470;-65
2023/04/14 02:06:07;;;;;;;3.83;1.10;;;10.30;92.40;;;;;;10314774;28;20026;-64
2023/04/14 02:11:11;;;;;;;2.10;1.00;;;10.30;92.40;;;;;;10316223;28;20042;-65
2023/04/14 02:16:14;;;;;;;1.55;1.10;;;10.30;92.50;;;;;;10320921;28;20061;-64
2023/04/14 02:21:16;;;;;;;1.63;1.00;;;10.30;92.50;;;;;;10318780;28;20108;-65
2023/04/14 02:26:23;;;;;;;2.50;0.98;;;10.20;92.50;;;;;;10318178;28;20479;-64
2023/04/14 02:31:26;;;;;;;1.92;1.10;;;10.20;92.50;;;;;;10315371;28;20025;-65
2023/04/14 02:36:33;;;;;;;3.38;0.85;;;10.20;92.50;;;;;;10319281;28;20026;-65
2023/04/14 02:41:37;;;;;;;3.13;1.15;;;10.20;92.50;;;;;;10314289;28;20022;-65
2023/04/14 02:46:41;;;;;;;1.00;0.80;;;10.20;92.50;;;;;;10312262;28;20026;-64
2023/04/14 02:51:43;;;;;;;1.55;1.00;;;10.10;92.50;;;;;;10318976;28;20027;-64
2023/04/14 02:56:44;;;;;;;2.60;1.30;;;10.10;92.50;;;;;;10312726;28;20518;-64
2023/04/14 03:01:46;;;;;;;1.13;1.00;;;10.10;92.50;;;;;;10309243;28;20122;-64
2023/04/14 03:06:47;;;;;;;2.13;1.00;;;10.10;92.50;;;;;;10315792;28;20031;-63
2023/04/14 03:11:49;;;;;;;3.47;1.00;;;10.00;92.50;;;;;;10316663;28;20026;-65
2023/04/14 03:16:53;;;;;;;3.13;0.90;;;10.00;92.50;;;;;;10316682;28;20513;-64
2023/04/14 03:21:54;;;;;;;1.52;0.80;;;10.00;92.50;;;;;;10317113;28;20027;-63
2023/04/14 03:27:00;;;;;;;2.35;1.00;;;10.00;92.50;;;;;;10317281;28;20134;-64
2023/04/14 03:32:05;;;;;;;2.58;0.80;;;10.00;92.50;;;;;;10317282;28;20023;-64
2023/04/14 03:37:07;;;;;;;1.20;0.93;;;9.90;92.50;;;;;;10310053;28;20041;-64
2023/04/14 03:42:10;;;;;;;2.25;1.00;;;9.90;92.60;;;;;;10313187;28;20022;-64
2023/04/14 03:47:11;;;;;;;5.07;1.10;;;9.90;92.60;;;;;;10317483;28;20042;-64
2023/04/14 03:52:14;;;;;;;2.35;1.00;;;9.90;92.60;;;;;;10316265;28;20107;-65
2023/04/14 03:57:17;;;;;;;1.75;0.93;;;9.80;92.60;;;;;;10316334;28;20031;-64
2023/04/14 04:02:18;;;;;;;2.47;1.20;;;9.80;92.60;;;;;;10314765;28;20061;-64
2023/04/14 04:07:20;;;;;;;3.75;1.00;;;9.80;92.60;;;;;;10314734;28;20039;-65
2023/04/14 04:12:22;;;;;;;2.20;0.90;;;9.80;92.60;;;;;;10312811;28;20033;-64
2023/04/14 04:17:25;;;;;;;2.30;0.90;;;9.70;92.60;;;;;;10311728;28;20038;-63
2023/04/14 04:22:26;;;;;;;2.50;0.90;;;9.70;92.60;;;;;;10318011;28;20022;-65
2023/04/14 04:27:27;;;;;;;1.85;0.77;;;9.70;92.60;;;;;;10319006;28;20033;-66
2023/04/14 04:32:28;;;;;;;2.35;0.90;;;9.70;92.60;;;;;;10320799;28;20296;-67
2023/04/14 04:37:30;;;;;;;1.85;1.05;;;9.70;92.60;;;;;;10321047;28;20326;-66
2023/04/14 04:42:31;;;;;;;1.70;1.00;;;9.60;92.60;;;;;;10318173;28;20022;-66
2023/04/14 04:47:32;;;;;;;2.15;0.90;;;9.60;92.60;;;;;;10321390;28;20354;-66
2023/04/14 04:52:32;;;;;;;1.83;0.70;;;9.60;92.60;;;;;;10319160;28;20023;-66
2023/04/14 04:57:33;;;;;;;2.10;1.15;;;9.60;92.60;;;;;;10321284;28;20030;-66
2023/04/14 05:02:33;;;;;;;4.57;0.90;;;9.60;92.60;;;;;;10318591;28;20037;-65
2023/04/14 05:07:34;;;;;;;1.55;1.08;;;9.50;92.70;;;;;;10317015;28;20387;-66
2023/04/14 05:12:34;;;;;;;1.88;0.77;;;9.50;92.70;;;;;;10324336;28;20501;-66
2023/04/14 05:17:36;;;;;;;2.08;1.20;;;9.50;92.60;;;;;;10320302;28;20026;-66
2023/04/14 05:22:36;;;;;;;2.10;1.00;;;9.50;92.60;;;;;;10324855;28;20113;-65
2023/04/14 05:27:37;;;;;;;3.90;1.13;;;9.50;92.60;;;;;;10319620;28;20019;-66
2023/04/14 05:32:37;;;;;;;3.72;1.30;;;9.40;92.60;;;;;;10321240;28;20474;-65
2023/04/14 05:37:38;;;;;;;3.38;1.80;;;9.50;92.60;;;;;;10315895;28;20077;-64
2023/04/14 05:42:40;;;;;;;4.78;1.50;;;9.50;92.60;;;;;;10318220;28;20075;-66
2023/04/14 05:47:41;;;;;;;3.75;1.25;;;9.50;92.50;;;;;;10315764;28;20085;-66
2023/04/14 05:52:41;;;;;;;2.03;1.20;;;9.40;92.50;;;;;;10316245;28;20695;-65
2023/04/14 05:57:42;;;;;;;4.32;1.50;;;9.50;92.50;;;;;;10314914;28;20426;-65
2023/04/14 06:02:44;;;;;;;2.30;1.30;;;9.50;92.50;;;;;;10306573;28;20037;-66
2023/04/14 06:07:45;;;;;;;2.38;1.40;;;9.50;92.50;;;;;;10303919;28;20487;-66
2023/04/14 06:12:48;;;;;;;2.83;1.10;;;9.50;92.50;;;;;;10318524;28;20026;-66
2023/04/14 06:17:49;;;;;;;4.32;1.30;;;9.40;92.50;;;;;;10315360;28;20018;-66
2023/04/14 06:22:49;;;;;;;1.92;1.38;;;9.50;92.50;;;;;;10311267;28;20031;-65
2023/04/14 06:27:50;;;;;;;2.72;1.20;;;9.50;92.50;;;;;;10319069;28;20018;-65
2023/04/14 06:32:52;;;;;;;2.58;1.23;;;9.50;92.50;;;;;;10313206;28;20018;-67
2023/04/14 06:37:53;;;;;;;5.07;1.77;;;9.50;92.50;;;;;;10313435;28;20030;-68
2023/04/14 06:42:54;;;;;;;4.28;2.08;;;9.50;92.70;;;;;;10318999;28;20026;-67
2023/04/14 06:47:54;;;;;;;3.78;1.60;;;9.60;92.60;;;;;;10319309;28;20053;-67
2023/04/14 06:52:55;;;;;;;3.20;1.38;;;9.30;92.50;;;;;;10321793;28;20508;-67
2023/04/14 06:57:56;;;;;;;4.55;1.40;;;9.60;92.60;;;;;;10316606;28;20494;-68
2023/04/14 07:02:56;;;;;;;3.42;1.40;;;9.60;92.60;;;;;;10314217;28;20050;-67
2023/04/14 07:07:57;;;;;;;5.28;1.58;;;9.60;92.60;;;;;;10306513;28;20037;-66
2023/04/14 07:12:57;;;;;;;3.97;1.73;;;9.60;92.60;;;;;;10314268;28;20379;-66
2023/04/14 07:17:58;;;;;;;3.20;1.65;;;9.60;92.60;;;;;;10311020;28;20022;-66
2023/04/14 07:22:58;;;;;;;2.38;1.30;;;9.70;92.70;;;;;;10315538;28;20033;-66
2023/04/14 07:27:59;;;;;;;3.05;1.40;;;9.70;92.70;;;;;;10311224;28;20028;-65
2023/04/14 07:33:01;;;;;;;2.63;1.20;;;9.70;92.70;;;;;;10317968;28;20477;-66
2023/04/14 07:38:01;;;;;;;3.03;1.30;;;9.80;92.70;;;;;;10311350;28;20125;-66
2023/04/14 07:43:02;;;;;;;4.88;1.38;;;9.80;92.70;;;;;;10319383;28;20391;-66
2023/04/14 07:48:03;;;;;;;4.45;1.63;;;9.80;92.70;;;;;;10314588;28;20032;-65
2023/04/14 07:53:03;;;;;;;4.07;1.25;;;9.90;92.70;;;;;;10316871;28;20371;-66
2023/04/14 07:58:04;;;;;;;5.28;1.55;;;9.90;92.70;;;;;;10322198;28;20104;-65
2023/04/14 08:03:04;;;;;;;2.55;1.33;;;9.90;92.70;;;;;;10324904;28;20101;-68
2023/04/14 08:08:05;;;;;;;3.33;1.35;;;10.00;92.70;;;;;;10319415;28;20031;-65
2023/04/14 08:13:06;;;;;;;3.83;1.50;;;10.00;92.70;;;;;;10322128;28;20019;-65
2023/04/14 08:18:06;;;;;;;3.58;1.63;;;10.10;92.70;;;;;;10325214;28;20072;-66
2023/04/14 08:23:07;;;;;;;4.07;1.23;;;10.10;92.70;;;;;;10325036;28;20031;-65
2023/04/14 08:28:08;;;;;;;5.25;1.35;;;10.10;92.70;;;;;;10325405;28;20073;-67
2023/04/14 08:33:09;;;;;;;4.35;1.45;;;10.20;92.70;;;;;;10325772;28;20101;-66
2023/04/14 08:38:10;;;;;;;2.15;0.98;;;10.20;92.70;;;;;;10320897;28;20038;-66
2023/04/14 08:43:12;;;;;;;3.70;1.52;;;10.20;92.70;;;;;;10324507;28;20356;-65
2023/04/14 08:48:15;;;;;;;2.88;1.50;;;10.30;92.70;;;;;;10325263;28;20026;-66
2023/04/14 08:53:22;;;;;;;2.10;1.20;;;10.30;92.70;;;;;;10323489;28;20022;-67
2023/04/14 08:58:22;;;;;;;3.58;1.50;;;10.40;92.70;;;;;;10325846;28;20345;-67
2023/04/14 09:03:24;;;;;;;4.93;1.65;;;10.40;92.60;;;;;;10324330;28;20475;-66
2023/04/14 09:08:26;;;;;;;4.00;1.20;;;10.50;92.90;;;;;;10321119;28;20026;-65
2023/04/14 09:13:27;;;;;;;3.50;1.55;;;10.50;92.60;;;;;;10322685;28;20018;-66
2023/04/14 09:18:30;;;;;;;5.13;1.05;;;10.60;92.80;;;;;;10321161;28;20029;-66
2023/04/14 09:23:32;;;;;;;3.42;1.55;;;10.60;92.60;;;;;;10320895;28;20041;-66
2023/04/14 09:28:33;;;;;;;2.78;1.40;;;10.70;92.50;;;;;;10320696;28;20037;-66
2023/04/14 09:33:49;;;;;;;3.90;1.35;;;10.70;92.40;;;;;;10322772;28;20035;-66
2023/04/14 09:38:50;;;;;;;3.03;1.40;;;10.80;92.40;;;;;;10319813;28;20042;-66
2023/04/14 09:43:51;;;;;;;3.65;1.30;;;10.90;92.30;;;;;;10319798;28;20018;-65
2023/04/14 09:48:54;;;;;;;6.85;1.42;;;10.90;92.30;;;;;;10319895;28;20034;-67
2023/04/14 09:54:03;;;;;;;3.20;1.27;;;11.00;92.20;;;;;;10321548;28;20434;-66
2023/04/14 09:59:03;;;;;;;4.80;1.20;;;11.00;92.20;;;;;;10330480;28;20097;-66
2023/04/14 10:04:19;;;;;;;3.28;1.17;;;11.00;92.20;;;;;;10314471;28;20030;-66
2023/04/14 10:09:21;;;;;;;3.28;1.17;;;11.10;92.20;;;;;;10316790;28;20019;-65
2023/04/14 10:14:22;;;;;;;2.85;1.10;;;11.10;92.20;;;;;;10319854;28;20026;-67
2023/04/14 10:19:22;;;;;;;6.80;1.17;;;11.20;92.10;;;;;;10318787;28;20478;-66
2023/04/14 10:24:24;;;;;;;3.80;1.08;;;11.20;92.10;;;;;;10317909;28;20018;-65
2023/04/14 10:29:24;;;;;;;2.42;1.10;;;11.30;92.00;;;;;;10317715;28;20022;-66
2023/04/14 10:34:28;;;;;;;2.60;1.00;;;11.40;92.00;;;;;;10320726;28;20038;-66
2023/04/14 10:39:29;;;;;;;3.72;1.20;;;11.40;91.90;;;;;;10313799;28;20030;-67
2023/04/14 10:44:31;;;;;;;3.28;1.00;;;11.40;91.80;;;;;;10316751;28;20026;-66
2023/04/14 10:49:36;;;;;;;4.63;1.38;;;11.50;91.80;;;;;;10321286;28;20030;-67
2023/04/14 10:55:00;;;;;;;3.10;1.27;;;11.50;91.80;;;;;;10320951;28;20077;-65
2023/04/14 11:00:19;;;;;;;3.45;1.00;;;11.60;91.70;;;;;;10320107;28;20117;-67
2023/04/14 11:05:20;;;;;;;3.78;1.10;;;11.60;91.70;;;;;;10318777;28;20093;-66
2023/04/14 11:10:21;;;;;;;3.92;1.00;;;11.70;91.60;;;;;;10319310;28;20021;-67
2023/04/14 11:15:22;;;;;;;3.17;1.15;;;11.70;91.50;;;;;;10316621;28;20028;-66
2023/04/14 11:20:23;;;;;;;4.10;1.00;;;11.80;91.50;;;;;;10318481;28;20026;-66
2023/04/14 11:25:25;;;;;;;1.92;0.93;;;11.80;91.50;;;;;;10314249;28;20072;-66
2023/04/14 11:30:26;;;;;;;4.85;1.00;;;11.80;91.50;;;;;;10316666;28;20165;-66
2023/04/14 11:35:28;;;;;;;6.28;1.10;;;11.80;91.40;;;;;;10320175;28;20084;-66
2023/04/14 11:40:28;;;;;;;2.50;1.10;;;11.90;91.40;;;;;;10318617;28;20098;-67
2023/04/14 11:45:29;;;;;;;4.10;1.40;;;11.90;91.30;;;;;;10317243;28;20281;-66
2023/04/14 11:50:37;;;;;;;2.65;0.95;;;12.00;91.20;;;;;;10317142;28;20049;-66
2023/04/14 11:55:49;;;;;;;3.97;1.40;;;12.10;91.10;;;;;;10316572;28;20035;-64
2023/04/14 12:00:52;;;;;;;1.33;0.93;;;12.20;91.00;;;;;;10314675;28;20478;-65
2023/04/14 12:05:57;;;;;;;4.05;0.80;;;12.20;90.90;;;;;;10310502;28;20069;-63
2023/04/14 12:11:09;;;;;;;5.88;1.25;;;12.30;90.90;;;;;;10315904;28;20110;-67
2023/04/14 12:16:11;;;;;;;3.13;0.88;;;12.40;90.80;;;;;;10317015;28;20049;-68
2023/04/14 12:21:17;;;;;;;1.98;0.80;;;12.40;90.70;;;;;;10318000;28;20352;-67
2023/04/14 12:26:18;;;;;;;3.78;1.17;;;12.50;90.60;;;;;;10315064;28;20030;-68
2023/04/14 12:31:28;;;;;;;5.15;1.10;;;12.60;90.60;;;;;;10316102;28;20080;-67
2023/04/14 12:36:30;;;;;;;2.55;0.95;;;12.70;90.40;;;;;;10314274;28;20121;-68
2023/04/14 12:41:31;;;;;;;1.70;1.00;;;12.80;90.30;;;;;;10319226;28;20022;-67
2023/04/14 12:46:31;;;;;;;2.38;0.90;;;12.80;90.30;;;;;;10320548;28;20023;-67
2023/04/14 12:51:38;;;;;;;4.13;0.90;;;12.80;90.30;;;;;;10320041;28;20069;-68
2023/04/14 12:56:41;;;;;;;2.60;0.95;;;12.90;90.20;;;;;;10321603;28;20084;-67
2023/04/14 13:01:42;;;;;;;2.35;1.25;;;12.90;90.20;;;;;;10313361;28;20061;-67
2023/04/14 13:06:42;;;;;;;2.60;0.90;;;12.90;90.20;;;;;;10318596;28;20117;-65
2023/04/14 13:11:43;;;;;;;2.85;1.00;;;13.00;90.20;;;;;;10317616;28;20101;-65
2023/04/14 13:16:44;;;;;;;2.10;1.00;;;13.10;90.10;;;;;;10314991;28;20053;-65
2023/04/14 13:21:45;;;;;;;3.25;0.85;;;13.10;90.10;;;;;;10323964;28;20331;-65
2023/04/14 13:26:45;;;;;;;2.83;1.00;;;13.20;90.10;;;;;;10316990;28;20041;-64
2023/04/14 13:31:46;;;;;;;2.95;0.98;;;13.20;90.30;;;;;;10319599;28;20495;-66
2023/04/14 13:36:47;;;;;;;3.08;0.88;;;13.20;90.20;;;;;;10324224;28;20406;-66
2023/04/14 13:41:48;;;;;;;3.22;1.30;;;13.20;90.30;;;;;;10315892;28;20036;-66
2023/04/14 13:46:51;;;;;;;2.15;1.00;;;13.30;90.20;;;;;;10317442;28;20402;-66
2023/04/14 13:51:52;;;;;;;1.00;0.80;;;13.40;90.20;;;;;;10320014;28;20655;-66
2023/04/14 13:56:52;;;;;;;2.85;0.77;;;13.50;90.20;;;;;;10316920;28;20026;-66
2023/04/14 14:01:53;;;;;;;1.95;1.10;;;13.60;90.10;;;;;;10317973;28;20053;-66
2023/04/14 14:06:54;;;;;;;4.30;0.82;;;13.70;89.90;;;;;;10311338;28;20033;-66
2023/04/14 14:11:54;;;;;;;3.92;1.17;;;14.10;87.70;;;;;;10318012;28;20027;-65
2023/04/14 14:16:55;;;;;;;5.50;1.08;;;14.60;84.30;;;;;;10245759;23;20046;-82
2023/04/14 14:26:32;;;;;;;3.38;1.10;;;15.30;76.20;;;;;;10543330;27;20767;-64
2023/04/14 14:31:34;;;;;;;3.80;1.45;;;15.50;78.20;;;;;;10519473;28;20146;-66
2023/04/14 14:36:34;;;;;;;6.43;1.00;;;15.60;77.90;;;;;;10522497;28;20047;-65
2023/04/14 14:41:35;;;;;;;4.75;0.95;;;15.60;78.70;;;;;;10518121;28;20503;-65
2023/04/14 14:46:36;;;;;;;2.17;1.20;;;15.30;79.80;;;;;;10516362;28;20683;-65
2023/04/14 14:51:37;;;;;;;4.72;0.80;;;15.20;80.40;;;;;;10523134;28;20060;-65
2023/04/14 14:56:37;;;;;;;1.42;0.80;;;15.10;80.50;;;;;;10519647;28;20458;-65
2023/04/14 15:01:38;;;;;;;2.47;1.10;;;15.20;80.60;;;;;;10524019;28;20029;-66
2023/04/14 15:06:39;;;;;;;2.97;1.10;;;15.30;80.40;;;;;;10529183;28;20024;-65
2023/04/14 15:11:39;;;;;;;1.17;0.93;;;15.30;80.20;;;;;;10523058;28;20054;-66
2023/04/14 15:16:40;;;;;;;3.83;0.85;;;15.40;80.30;;;;;;10526720;28;20022;-66
2023/04/14 15:21:42;;;;;;;3.95;0.85;;;15.50;80.40;;;;;;10527136;28;20342;-66
2023/04/14 15:26:42;;;;;;;3.63;0.90;;;15.60;80.40;;;;;;10521690;28;20023;-66
2023/04/14 15:31:43;;;;;;;4.03;1.00;;;15.60;80.00;;;;;;10526013;28;20031;-65
2023/04/14 15:36:44;;;;;;;2.50;0.68;;;15.70;80.10;;;;;;10507074;28;20077;-66
2023/04/14 15:41:46;;;;;;;2.25;1.00;;;15.80;79.80;;;;;;10495800;28;20044;-65
2023/04/14 15:46:46;;;;;;;4.00;1.10;;;15.90;79.70;;;;;;10496067;28;20107;-66
2023/04/14 15:51:47;;;;;;;7.18;1.90;;;16.00;79.40;;;;;;10498794;28;20502;-71
2023/04/14 15:56:51;;;;;;;4.25;1.60;;;16.00;77.80;;;;;;10495612;28;20027;-67
2023/04/14 16:01:52;;;;;;;4.63;1.60;;;15.90;75.10;;;;;;10491044;28;20028;-67
2023/04/14 16:06:53;;;;;;;6.75;1.40;;;15.60;74.40;;;;;;10499242;28;20032;-67
2023/04/14 16:11:55;;;;;;;4.32;1.63;;;15.40;74.00;;;;;;10490120;28;20040;-67
2023/04/14 16:16:56;;;;;;;3.75;1.50;;;15.40;72.80;;;;;;10493341;28;20036;-67
2023/04/14 16:21:57;;;;;;;4.55;2.20;;;15.20;73.40;;;;;;10495912;28;20032;-68
2023/04/14 16:26:57;;;;;;;5.78;2.47;;;15.10;73.00;;;;;;10493726;28;20339;-68
2023/04/14 16:31:58;;;;;;;3.83;1.50;;;15.00;72.40;;;;;;10493293;28;20058;-67
2023/04/14 16:36:59;;;;;;;3.53;1.80;;;15.00;72.50;;;;;;10497297;28;20042;-67
2023/04/14 16:42:01;;;;;;;3.63;2.17;;;14.80;73.70;;;;;;10492146;28;20041;-67
2023/04/14 16:47:02;;;;;;;2.53;1.80;;;14.90;72.30;;;;;;10490128;28;20024;-67
2023/04/14 16:52:03;;;;;;;4.75;2.00;;;14.70;71.70;;;;;;10497796;28;20475;-66
2023/04/14 16:57:04;;;;;;;5.43;2.10;;;14.60;72.00;;;;;;10490356;28;20020;-66
2023/04/14 17:02:05;;;;;;;3.70;2.00;;;14.50;72.10;;;;;;10484749;28;20036;-65
2023/04/14 17:07:05;;;;;;;5.90;2.08;;;14.40;72.50;;;;;;10492090;28;20017;-65
2023/04/14 17:12:06;;;;;;;5.38;1.90;;;14.40;73.30;;;;;;10496479;28;20020;-66
2023/04/14 17:17:07;;;;;;;4.00;1.70;;;14.30;73.50;;;;;;10488073;28;20357;-65
2023/04/14 17:22:07;;;;;;;4.70;2.20;;;14.30;74.30;;;;;;10491254;28;20039;-66
2023/04/14 17:27:08;;;;;;;6.38;2.00;;;14.30;74.60;;;;;;10483739;28;20025;-66
2023/04/14 17:32:09;;;;;;;7.20;1.92;;;14.20;74.80;;;;;;10496833;28;20473;-66
2023/04/14 17:37:10;;;;;;;7.93;1.90;;;14.10;75.50;;;;;;10496085;28;20571;-68
2023/04/14 17:42:11;;;;;;;2.30;1.70;;;14.10;76.50;;;;;;10490266;28;20416;-65
2023/04/14 17:47:14;;;;;;;5.05;2.08;;;14.30;77.00;;;;;;10485892;28;20032;-64
2023/04/14 17:52:15;;;;;;;5.40;1.90;;;14.40;77.30;;;;;;10454449;28;20574;-66
2023/04/14 17:57:16;;;;;;;4.32;1.95;;;14.50;77.60;;;;;;10461134;28;20032;-65
2023/04/14 18:02:17;;;;;;;4.68;2.00;;;14.60;77.90;;;;;;10468330;28;20029;-66
2023/04/14 18:07:18;;;;;;;3.83;1.92;;;14.70;78.20;;;;;;10460242;28;20788;-65
2023/04/14 18:12:22;;;;;;;4.10;1.55;;;14.70;78.50;;;;;;10459193;28;20078;-65
2023/04/14 18:17:23;;;;;;;5.18;2.13;;;14.70;78.80;;;;;;10460185;28;20036;-66
2023/04/14 18:22:26;;;;;;;5.05;1.80;;;14.60;79.10;;;;;;10459422;28;20533;-66
2023/04/14 18:27:26;;;;;;;3.88;2.17;;;14.60;79.50;;;;;;10460572;28;20353;-65
2023/04/14 18:32:32;;;;;;;2.72;1.70;;;14.60;79.90;;;;;;10458921;28;20032;-65
2023/04/14 18:37:33;;;;;;;3.63;1.58;;;14.60;80.30;;;;;;10458283;28;20033;-65
2023/04/14 18:42:34;;;;;;;3.00;1.60;;;14.50;80.50;;;;;;10458472;28;20171;-65
2023/04/14 18:47:35;;;;;;;3.28;2.05;;;14.50;81.10;;;;;;10459962;28;20070;-65
2023/04/14 18:52:36;;;;;;;3.63;2.00;;;14.50;81.30;;;;;;10455157;28;20652;-65
2023/04/14 18:57:37;;;;;;;4.85;1.67;;;14.50;81.50;;;;;;10467176;28;20033;-65
2023/04/14 19:02:37;;;;;;;3.97;1.63;;;14.40;81.80;;;;;;10471924;28;20033;-69
2023/04/14 19:07:38;;;;;;;2.72;1.42;;;14.40;82.00;;;;;;10469793;28;20032;-65
2023/04/14 19:12:39;;;;;;;3.97;1.40;;;14.40;82.30;;;;;;10476052;28;20037;-66
2023/04/14 19:17:40;;;;;;;2.70;1.27;;;14.30;82.50;;;;;;10467283;28;20548;-66
2023/04/14 19:22:40;;;;;;;2.88;1.63;;;14.30;82.80;;;;;;10486603;28;20032;-66
2023/04/14 19:27:41;;;;;;;3.33;1.60;;;14.30;83.10;;;;;;10479697;28;20100;-67
2023/04/14 19:32:41;;;;;;;3.60;1.52;;;14.20;83.30;;;;;;10485386;28;20107;-65
2023/04/14 19:37:43;;;;;;;6.07;1.73;;;14.20;83.60;;;;;;10486918;28;20028;-67
2023/04/14 19:42:43;;;;;;;3.03;1.75;;;14.10;83.70;;;;;;10485213;28;20032;-65
2023/04/14 19:47:45;;;;;;;3.90;2.00;;;14.10;83.90;;;;;;10485503;28;20261;-65
2023/04/14 19:52:48;;;;;;;2.58;1.30;;;14.10;84.10;;;;;;10478799;28;20493;-65
2023/04/14 19:57:49;;;;;;;2.78;1.48;;;14.00;84.30;;;;;;10477917;28;20028;-65
2023/04/14 20:02:49;;;;;;;2.75;1.70;;;14.00;84.50;;;;;;10488142;28;20032;-64
2023/04/14 20:07:54;;;;;;;2.15;1.48;;;13.90;84.70;;;;;;10485192;28;20031;-64
2023/04/14 20:12:55;;;;;;;2.92;1.60;;;13.90;84.90;;;;;;10481110;28;20503;-65
2023/04/14 20:17:56;;;;;;;4.53;2.00;;;13.90;85.10;;;;;;10485896;28;20027;-65
2023/04/14 20:22:57;;;;;;;2.40;1.63;;;13.80;85.20;;;;;;10484072;28;20027;-66
2023/04/14 20:27:58;;;;;;;3.42;1.52;;;13.80;85.40;;;;;;10478901;28;20020;-65
2023/04/14 20:33:03;;;;;;;4.78;1.88;;;13.70;85.60;;;;;;10480820;28;20044;-66
2023/04/14 20:38:04;;;;;;;3.13;1.55;;;13.70;85.70;;;;;;10482383;28;20491;-65
2023/04/14 20:43:05;;;;;;;6.22;1.98;;;13.70;85.90;;;;;;10479956;28;20032;-65
2023/04/14 20:48:06;;;;;;;3.42;1.98;;;13.70;86.10;;;;;;10479244;28;20427;-66
2023/04/14 20:53:07;;;;;;;5.13;2.13;;;13.60;86.20;;;;;;10487188;28;20499;-66
2023/04/14 20:58:08;;;;;;;3.15;1.88;;;13.60;86.30;;;;;;10478324;28;20082;-65
2023/04/14 21:03:09;;;;;;;3.90;1.85;;;13.60;86.40;;;;;;10476992;28;20033;-66
2023/04/14 21:08:11;;;;;;;4.38;1.98;;;13.50;86.50;;;;;;10480294;28;20021;-65
2023/04/14 21:13:12;;;;;;;3.13;1.73;;;13.50;86.60;;;;;;10483535;28;20028;-64
2023/04/14 21:18:12;;;;;;;2.90;1.83;;;13.40;86.70;;;;;;10479731;28;20480;-66
2023/04/14 21:23:17;;;;;;;4.18;1.90;;;13.50;86.90;;;;;;10482323;28;20194;-66
2023/04/14 21:28:18;;;;;;;3.30;2.17;;;13.40;86.90;;;;;;10484382;28;20017;-66
2023/04/14 21:33:18;;;;;;;3.15;1.90;;;13.30;87.00;;;;;;10482276;28;20410;-65
2023/04/14 21:38:19;;;;;;;4.57;2.67;;;13.30;87.00;;;;;;10482631;28;20037;-65
2023/04/14 21:43:20;;;;;;;3.40;2.10;;;13.30;87.10;;;;;;10479216;28;20028;-66
2023/04/14 21:48:20;;;;;;;4.13;2.33;;;13.20;87.10;;;;;;10487586;28;20445;-67
2023/04/14 21:53:22;;;;;;;2.88;2.05;;;13.20;87.20;;;;;;10488685;28;20655;-65
2023/04/14 21:58:22;;;;;;;4.47;2.17;;;13.20;87.20;;;;;;10492243;28;20016;-65
2023/04/14 22:03:23;;;;;;;3.55;1.95;;;13.20;87.30;;;;;;10485430;28;20406;-64
2023/04/14 22:08:24;;;;;;;2.53;1.77;;;13.10;87.40;;;;;;10481109;28;20254;-65
2023/04/14 22:13:25;;;;;;;4.80;2.22;;;13.10;87.50;;;;;;10490239;28;20024;-66
2023/04/14 22:18:29;;;;;;;3.30;2.10;;;13.10;87.60;;;;;;10484643;28;20030;-65
2023/04/14 22:23:30;;;;;;;3.60;2.00;;;13.00;87.70;;;;;;10487205;28;20028;-66
2023/04/14 22:28:31;;;;;;;2.55;1.95;;;13.00;87.70;;;;;;10488588;28;20016;-65
2023/04/14 22:33:31;;;;;;;2.97;2.15;;;13.00;87.70;;;;;;10488376;28;20099;-65
2023/04/14 22:38:32;;;;;;;4.47;1.95;;;12.90;87.80;;;;;;10486962;28;20028;-65
2023/04/14 22:43:33;;;;;;;6.72;2.10;;;12.90;87.90;;;;;;10490596;28;20368;-64
2023/04/14 22:48:34;;;;;;;2.35;1.52;;;12.90;88.00;;;;;;10497112;28;20054;-66
2023/04/14 22:53:34;;;;;;;2.05;1.80;;;12.90;88.00;;;;;;10491664;28;20017;-65
2023/04/14 22:58:37;;;;;;;2.90;1.85;;;12.80;88.10;;;;;;10492404;28;20031;-65
2023/04/14 23:03:38;;;;;;;3.63;1.90;;;12.80;88.20;;;;;;10493888;28;20103;-64
2023/04/14 23:08:39;;;;;;;4.47;1.75;;;12.70;88.20;;;;;;10501874;28;20123;-65
2023/04/14 23:13:47;;;;;;;2.67;1.90;;;12.70;88.20;;;;;;10505969;28;20032;-65
2023/04/14 23:18:51;;;;;;;3.08;2.03;;;12.70;88.30;;;;;;10509156;28;20651;-64
2023/04/14 23:23:52;;;;;;;3.38;2.10;;;12.70;88.70;;;;;;10500990;28;20099;-64
2023/04/14 23:28:52;;;;;;;3.22;1.90;;;12.60;88.40;;;;;;10495777;28;20020;-66
2023/04/14 23:33:53;;;;;;;3.88;2.10;;;12.70;88.50;;;;;;10505849;28;20047;-66
2023/04/14 23:38:54;;;;;;;3.63;2.35;;;12.60;88.50;;;;;;10509168;28;20032;-65
2023/04/14 23:43:55;;;;;;;2.78;2.00;;;12.60;88.60;;;;;;10504471;28;20029;-65
2023/04/14 23:48:57;;;;;;;2.38;1.98;;;12.60;88.70;;;;;;10502408;28;20013;-65
2023/04/14 23:54:00;;;;;;;2.72;2.08;;;12.50;88.70;;;;;;10510859;28;20036;-65
2023/04/14 23:59:01;;;;;;;2.88;1.95;;;12.50;88.80;;;;;;10507224;28;20503;-65
